createdAt,value
2023-01-18T00:00:35.178Z,935.30
2023-01-18T00:01:34.152Z,935.30
2023-01-18T00:02:34.158Z,935.33
2023-01-18T00:03:34.113Z,935.32
2023-01-18T00:04:34.143Z,935.31
2023-01-18T00:05:34.096Z,935.32
2023-01-18T00:06:34.123Z,935.28
2023-01-18T00:07:34.098Z,935.28
2023-01-18T00:08:34.081Z,935.27
2023-01-18T00:09:34.051Z,935.32
2023-01-18T00:10:34.052Z,935.26
2023-01-18T00:11:34.018Z,935.28
2023-01-18T00:12:34.077Z,935.35
2023-01-18T00:13:33.998Z,935.29
2023-01-18T00:14:33.986Z,935.27
2023-01-18T00:15:33.989Z,935.32
2023-01-18T00:16:34.008Z,935.30
2023-01-18T00:17:33.973Z,935.30
2023-01-18T00:18:33.975Z,935.30
2023-01-18T00:19:33.935Z,935.28
2023-01-18T00:20:33.930Z,935.28
2023-01-18T00:21:33.932Z,935.36
2023-01-18T00:22:33.936Z,935.34
2023-01-18T00:23:33.975Z,935.33
2023-01-18T00:24:33.884Z,935.33
2023-01-18T00:25:33.894Z,935.33
2023-01-18T00:26:33.881Z,935.32
2023-01-18T00:27:33.861Z,935.30
2023-01-18T00:28:33.827Z,935.29
2023-01-18T00:29:33.843Z,935.31
2023-01-18T00:30:33.810Z,935.32
2023-01-18T00:31:33.883Z,935.33
2023-01-18T00:32:33.819Z,935.28
2023-01-18T00:33:33.807Z,935.31
2023-01-18T00:34:33.780Z,935.30
2023-01-18T00:35:33.755Z,935.26
2023-01-18T00:36:33.743Z,935.28
2023-01-18T00:37:33.729Z,935.35
2023-01-18T00:38:33.760Z,935.38
2023-01-18T00:39:33.735Z,935.35
2023-01-18T00:40:33.696Z,935.33
2023-01-18T00:41:33.688Z,935.34
2023-01-18T00:42:33.690Z,935.33
2023-01-18T00:43:33.690Z,935.27
2023-01-18T00:44:33.690Z,935.32
2023-01-18T00:45:33.664Z,935.26
2023-01-18T00:46:33.634Z,935.24
2023-01-18T00:47:33.644Z,935.26
2023-01-18T00:48:33.623Z,935.28
2023-01-18T00:49:33.621Z,935.26
2023-01-18T00:50:33.604Z,935.26
2023-01-18T00:51:33.622Z,935.21
2023-01-18T00:52:33.563Z,935.22
2023-01-18T00:53:33.558Z,935.24
2023-01-18T00:54:33.541Z,935.15
2023-01-18T00:55:33.587Z,935.23
2023-01-18T00:56:33.553Z,935.18
2023-01-18T00:57:33.508Z,935.18
2023-01-18T00:58:33.497Z,935.15
2023-01-18T00:59:33.497Z,935.18
2023-01-18T01:00:33.527Z,935.24
2023-01-18T01:01:33.602Z,935.19
2023-01-18T01:02:33.506Z,935.24
2023-01-18T01:03:33.444Z,935.26
2023-01-18T01:04:33.433Z,935.27
2023-01-18T01:05:33.435Z,935.27
2023-01-18T01:06:33.436Z,935.30
2023-01-18T01:07:33.468Z,935.29
2023-01-18T01:08:33.387Z,935.28
2023-01-18T01:09:33.396Z,935.33
2023-01-18T01:10:33.369Z,935.32
2023-01-18T01:11:33.361Z,935.33
2023-01-18T01:12:33.353Z,935.33
2023-01-18T01:13:33.384Z,935.38
2023-01-18T01:14:33.321Z,935.35
2023-01-18T01:15:33.311Z,935.36
2023-01-18T01:16:33.335Z,935.33
2023-01-18T01:17:33.335Z,935.29
2023-01-18T01:18:33.290Z,935.31
2023-01-18T01:19:33.288Z,935.22
2023-01-18T01:20:33.324Z,935.25
2023-01-18T01:21:33.243Z,935.24
2023-01-18T01:22:33.270Z,935.23
2023-01-18T01:23:33.244Z,935.25
2023-01-18T01:24:33.235Z,935.28
2023-01-18T01:25:33.226Z,935.23
2023-01-18T01:26:33.232Z,935.33
2023-01-18T01:27:33.197Z,935.28
2023-01-18T01:28:33.177Z,935.30
2023-01-18T01:29:33.162Z,935.32
2023-01-18T01:30:33.204Z,935.37
2023-01-18T01:31:33.159Z,935.36
2023-01-18T01:32:33.153Z,935.36
2023-01-18T01:33:33.114Z,935.39
2023-01-18T01:34:33.119Z,935.44
2023-01-18T01:35:33.098Z,935.46
2023-01-18T01:36:33.106Z,935.43
2023-01-18T01:37:33.067Z,935.44
2023-01-18T01:38:33.107Z,935.44
2023-01-18T01:39:33.046Z,935.44
2023-01-18T01:40:33.068Z,935.37
2023-01-18T01:41:33.040Z,935.38
2023-01-18T01:42:33.034Z,935.45
2023-01-18T01:43:33.004Z,935.43
2023-01-18T01:44:32.990Z,935.42
2023-01-18T01:45:33.031Z,935.51
2023-01-18T01:46:32.975Z,935.43
2023-01-18T01:47:32.979Z,935.49
2023-01-18T01:48:32.970Z,935.48
2023-01-18T01:49:32.954Z,935.45
2023-01-18T01:50:32.920Z,935.44
2023-01-18T01:51:32.929Z,935.43
2023-01-18T01:52:33.064Z,935.47
2023-01-18T01:53:32.901Z,935.49
2023-01-18T01:54:32.894Z,935.52
2023-01-18T01:55:32.871Z,935.53
2023-01-18T01:56:41.671Z,935.49
2023-01-18T01:57:32.872Z,935.50
2023-01-18T01:58:32.881Z,935.56
2023-01-18T01:59:32.855Z,935.47
2023-01-18T02:00:32.814Z,935.49
2023-01-18T02:01:32.893Z,935.48
2023-01-18T02:02:32.874Z,935.48
2023-01-18T02:03:32.798Z,935.48
2023-01-18T02:04:32.782Z,935.46
2023-01-18T02:05:32.778Z,935.52
2023-01-18T02:06:32.758Z,935.47
2023-01-18T02:07:32.759Z,935.52
2023-01-18T02:08:32.738Z,935.54
2023-01-18T02:09:32.716Z,935.51
2023-01-18T02:10:32.741Z,935.49
2023-01-18T02:11:32.752Z,935.51
2023-01-18T02:12:32.712Z,935.52
2023-01-18T02:13:32.671Z,935.56
2023-01-18T02:14:32.681Z,935.60
2023-01-18T02:15:32.700Z,935.59
2023-01-18T02:16:32.666Z,935.63
2023-01-18T02:17:32.748Z,935.63
2023-01-18T02:18:32.622Z,935.61
2023-01-18T02:19:32.605Z,935.63
2023-01-18T02:20:32.624Z,935.63
2023-01-18T02:21:32.616Z,935.62
2023-01-18T02:22:32.592Z,935.64
2023-01-18T02:23:32.564Z,935.69
2023-01-18T02:24:32.560Z,935.70
2023-01-18T02:25:32.544Z,935.68
2023-01-18T02:26:32.561Z,935.73
2023-01-18T02:27:32.551Z,935.76
2023-01-18T02:28:32.526Z,935.72
2023-01-18T02:29:32.514Z,935.71
2023-01-18T02:30:32.534Z,935.78
2023-01-18T02:31:32.509Z,935.78
2023-01-18T02:32:32.472Z,935.79
2023-01-18T02:33:32.475Z,935.81
2023-01-18T02:34:32.440Z,935.82
2023-01-18T02:35:32.428Z,935.89
2023-01-18T02:36:32.480Z,935.92
2023-01-18T02:37:32.427Z,935.93
2023-01-18T02:38:32.396Z,935.91
2023-01-18T02:39:32.426Z,935.95
2023-01-18T02:40:32.414Z,935.90
2023-01-18T02:41:32.367Z,935.90
2023-01-18T02:42:32.383Z,935.93
2023-01-18T02:43:32.342Z,935.95
2023-01-18T02:44:32.361Z,936.04
2023-01-18T02:45:34.993Z,936.10
2023-01-18T02:46:32.351Z,936.10
2023-01-18T02:47:32.316Z,936.05
2023-01-18T02:48:32.330Z,936.04
2023-01-18T02:49:32.291Z,936.04
2023-01-18T02:50:32.277Z,936.09
2023-01-18T02:51:32.305Z,936.07
2023-01-18T02:52:32.280Z,936.11
2023-01-18T02:53:32.236Z,936.16
2023-01-18T02:54:32.258Z,936.19
2023-01-18T02:55:32.213Z,936.18
2023-01-18T02:56:32.215Z,936.22
2023-01-18T02:57:32.227Z,936.25
2023-01-18T02:58:32.224Z,936.24
2023-01-18T02:59:32.176Z,936.27
2023-01-18T03:00:32.192Z,936.30
2023-01-18T03:01:32.324Z,936.28
2023-01-18T03:02:32.197Z,936.32
2023-01-18T03:03:32.132Z,936.29
2023-01-18T03:04:32.112Z,936.33
2023-01-18T03:05:32.110Z,936.31
2023-01-18T03:06:32.124Z,936.30
2023-01-18T03:07:32.125Z,936.35
2023-01-18T03:08:32.081Z,936.34
2023-01-18T03:09:32.062Z,936.38
2023-01-18T03:10:32.070Z,936.33
2023-01-18T03:11:32.060Z,936.34
2023-01-18T03:12:32.066Z,936.33
2023-01-18T03:13:32.044Z,936.34
2023-01-18T03:14:32.052Z,936.40
2023-01-18T03:15:32.046Z,936.38
2023-01-18T03:16:31.987Z,936.40
2023-01-18T03:17:31.986Z,936.38
2023-01-18T03:18:31.963Z,936.39
2023-01-18T03:19:32.013Z,936.39
2023-01-18T03:20:31.962Z,936.41
2023-01-18T03:21:31.920Z,936.40
2023-01-18T03:22:31.909Z,936.36
2023-01-18T03:23:31.952Z,936.36
2023-01-18T03:24:31.917Z,936.41
2023-01-18T03:25:31.941Z,936.34
2023-01-18T03:26:31.902Z,936.45
2023-01-18T03:27:31.853Z,936.40
2023-01-18T03:28:31.846Z,936.35
2023-01-18T03:29:31.867Z,936.35
2023-01-18T03:30:31.877Z,936.37
2023-01-18T03:31:31.872Z,936.36
2023-01-18T03:32:31.796Z,936.38
2023-01-18T03:33:31.784Z,936.39
2023-01-18T03:34:31.779Z,936.33
2023-01-18T03:35:31.776Z,936.35
2023-01-18T03:36:31.794Z,936.37
2023-01-18T03:37:31.773Z,936.32
2023-01-18T03:38:31.733Z,936.32
2023-01-18T03:39:31.722Z,936.35
2023-01-18T03:40:31.731Z,936.33
2023-01-18T03:41:31.714Z,936.33
2023-01-18T03:42:31.720Z,936.30
2023-01-18T03:43:31.737Z,936.32
2023-01-18T03:44:31.667Z,936.36
2023-01-18T03:45:31.651Z,936.33
2023-01-18T03:46:31.718Z,936.34
2023-01-18T03:47:31.642Z,936.34
2023-01-18T03:48:31.646Z,936.38
2023-01-18T03:49:31.655Z,936.37
2023-01-18T03:50:31.603Z,936.39
2023-01-18T03:51:31.587Z,936.38
2023-01-18T03:52:31.577Z,936.39
2023-01-18T03:53:31.602Z,936.46
2023-01-18T03:54:31.586Z,936.39
2023-01-18T03:55:31.604Z,936.43
2023-01-18T03:56:31.562Z,936.37
2023-01-18T03:57:31.543Z,936.33
2023-01-18T03:58:31.516Z,936.36
2023-01-18T03:59:31.518Z,936.34
2023-01-18T04:00:31.609Z,936.46
2023-01-18T04:01:31.611Z,936.52
2023-01-18T04:02:31.514Z,936.52
2023-01-18T04:03:31.465Z,936.50
2023-01-18T04:04:31.461Z,936.52
2023-01-18T04:05:31.462Z,936.51
2023-01-18T04:06:31.447Z,936.50
2023-01-18T04:07:31.426Z,936.44
2023-01-18T04:08:31.406Z,936.47
2023-01-18T04:09:31.401Z,936.39
2023-01-18T04:10:31.389Z,936.42
2023-01-18T04:11:31.391Z,936.41
2023-01-18T04:12:31.404Z,936.48
2023-01-18T04:13:31.364Z,936.42
2023-01-18T04:14:31.337Z,936.45
2023-01-18T04:15:31.343Z,936.42
2023-01-18T04:16:31.331Z,936.47
2023-01-18T04:17:31.341Z,936.42
2023-01-18T04:18:31.354Z,936.42
2023-01-18T04:19:31.299Z,936.44
2023-01-18T04:20:31.328Z,936.41
2023-01-18T04:21:31.259Z,936.40
2023-01-18T04:22:31.288Z,936.45
2023-01-18T04:23:31.255Z,936.48
2023-01-18T04:24:31.232Z,936.50
2023-01-18T04:25:31.237Z,936.50
2023-01-18T04:26:31.215Z,936.56
2023-01-18T04:27:31.226Z,936.51
2023-01-18T04:28:31.205Z,936.57
2023-01-18T04:29:31.215Z,936.51
2023-01-18T04:30:31.217Z,936.48
2023-01-18T04:31:31.301Z,936.51
2023-01-18T04:32:31.197Z,936.50
2023-01-18T04:33:31.142Z,936.57
2023-01-18T04:34:31.196Z,936.53
2023-01-18T04:35:31.103Z,936.52
2023-01-18T04:36:31.095Z,936.54
2023-01-18T04:37:31.143Z,936.49
2023-01-18T04:38:31.105Z,936.52
2023-01-18T04:39:31.078Z,936.50
2023-01-18T04:40:31.081Z,936.53
2023-01-18T04:41:31.038Z,936.55
2023-01-18T04:42:31.028Z,936.50
2023-01-18T04:43:31.020Z,936.52
2023-01-18T04:44:31.011Z,936.49
2023-01-18T04:45:31.060Z,936.53
2023-01-18T04:46:31.032Z,936.49
2023-01-18T04:47:30.995Z,936.52
2023-01-18T04:48:30.986Z,936.53
2023-01-18T04:49:30.994Z,936.52
2023-01-18T04:50:30.962Z,936.53
2023-01-18T04:51:30.974Z,936.54
2023-01-18T04:52:30.931Z,936.55
2023-01-18T04:53:30.910Z,936.50
2023-01-18T04:54:30.919Z,936.52
2023-01-18T04:55:30.899Z,936.50
2023-01-18T04:56:30.881Z,936.61
2023-01-18T04:57:30.902Z,936.52
2023-01-18T04:58:30.852Z,936.53
2023-01-18T04:59:30.867Z,936.53
2023-01-18T05:00:30.879Z,936.58
2023-01-18T05:01:31.003Z,936.58
2023-01-18T05:02:30.924Z,936.59
2023-01-18T05:03:30.871Z,936.64
2023-01-18T05:04:30.830Z,936.65
2023-01-18T05:05:30.775Z,936.63
2023-01-18T05:06:30.799Z,936.63
2023-01-18T05:07:30.752Z,936.67
2023-01-18T05:08:30.756Z,936.66
2023-01-18T05:09:30.762Z,936.66
2023-01-18T05:10:30.766Z,936.66
2023-01-18T05:11:30.731Z,936.70
2023-01-18T05:12:30.740Z,936.67
2023-01-18T05:13:30.688Z,936.74
2023-01-18T05:14:30.703Z,936.67
2023-01-18T05:15:30.707Z,936.71
2023-01-18T05:16:30.782Z,936.73
2023-01-18T05:17:30.640Z,936.75
2023-01-18T05:18:30.644Z,936.75
2023-01-18T05:19:30.664Z,936.77
2023-01-18T05:20:30.626Z,936.73
2023-01-18T05:21:30.673Z,936.82
2023-01-18T05:22:30.607Z,936.78
2023-01-18T05:23:30.577Z,936.74
2023-01-18T05:24:30.591Z,936.86
2023-01-18T05:25:30.598Z,936.83
2023-01-18T05:26:30.576Z,936.83
2023-01-18T05:27:30.577Z,936.83
2023-01-18T05:28:30.528Z,936.84
2023-01-18T05:29:30.516Z,936.82
2023-01-18T05:30:30.537Z,936.88
2023-01-18T05:31:30.621Z,936.90
2023-01-18T05:32:30.496Z,936.84
2023-01-18T05:33:30.514Z,936.91
2023-01-18T05:34:30.480Z,936.92
2023-01-18T05:35:30.494Z,936.90
2023-01-18T05:36:30.443Z,936.94
2023-01-18T05:37:30.451Z,936.96
2023-01-18T05:38:30.457Z,936.88
2023-01-18T05:39:30.471Z,936.96
2023-01-18T05:40:30.392Z,936.96
2023-01-18T05:41:30.430Z,936.99
2023-01-18T05:42:30.373Z,936.99
2023-01-18T05:43:30.373Z,937.03
2023-01-18T05:44:30.394Z,937.02
2023-01-18T05:45:30.356Z,937.03
2023-01-18T05:46:30.413Z,936.97
2023-01-18T05:47:30.346Z,937.07
2023-01-18T05:48:30.315Z,937.03
2023-01-18T05:49:30.313Z,937.02
2023-01-18T05:50:30.287Z,937.07
2023-01-18T05:51:30.272Z,937.11
2023-01-18T05:52:30.343Z,937.06
2023-01-18T05:53:30.269Z,937.07
2023-01-18T05:54:30.286Z,937.13
2023-01-18T05:55:30.260Z,937.14
2023-01-18T05:56:30.259Z,937.10
2023-01-18T05:57:30.221Z,937.17
2023-01-18T05:58:30.199Z,937.21
2023-01-18T05:59:30.210Z,937.15
2023-01-18T06:00:30.193Z,937.20
2023-01-18T06:01:30.269Z,937.20
2023-01-18T06:02:30.150Z,937.15
2023-01-18T06:03:30.152Z,937.15
2023-01-18T06:04:30.225Z,937.16
2023-01-18T06:05:30.150Z,937.18
2023-01-18T06:06:30.125Z,937.23
2023-01-18T06:07:30.161Z,937.27
2023-01-18T06:08:30.095Z,937.30
2023-01-18T06:09:30.098Z,937.24
2023-01-18T06:10:30.103Z,937.31
2023-01-18T06:11:30.119Z,937.30
2023-01-18T06:12:30.070Z,937.27
2023-01-18T06:13:30.092Z,937.31
2023-01-18T06:14:30.029Z,937.34
2023-01-18T06:15:30.007Z,937.33
2023-01-18T06:16:30.163Z,937.36
2023-01-18T06:17:29.993Z,937.36
2023-01-18T06:18:30.007Z,937.39
2023-01-18T06:19:30.039Z,937.33
2023-01-18T06:20:29.953Z,937.37
2023-01-18T06:21:29.943Z,937.39
2023-01-18T06:22:30.699Z,937.43
2023-01-18T06:23:29.942Z,937.40
2023-01-18T06:24:29.936Z,937.38
2023-01-18T06:25:29.965Z,937.37
2023-01-18T06:26:30.000Z,937.37
2023-01-18T06:27:29.877Z,937.39
2023-01-18T06:28:30.889Z,937.39
2023-01-18T06:29:29.882Z,937.36
2023-01-18T06:30:29.898Z,937.43
2023-01-18T06:31:29.961Z,937.44
2023-01-18T06:32:29.822Z,937.43
2023-01-18T06:33:29.822Z,937.47
2023-01-18T06:34:30.480Z,937.55
2023-01-18T06:35:29.808Z,937.51
2023-01-18T06:36:29.845Z,937.50
2023-01-18T06:37:29.786Z,937.52
2023-01-18T06:38:29.799Z,937.52
2023-01-18T06:39:29.766Z,937.52
2023-01-18T06:40:29.771Z,937.55
2023-01-18T06:41:29.788Z,937.59
2023-01-18T06:42:29.730Z,937.52
2023-01-18T06:43:29.700Z,937.58
2023-01-18T06:44:29.690Z,937.56
2023-01-18T06:45:29.812Z,937.64
2023-01-18T06:46:29.789Z,937.64
2023-01-18T06:47:29.671Z,937.54
2023-01-18T06:48:29.647Z,937.66
2023-01-18T06:49:30.055Z,937.65
2023-01-18T06:50:29.627Z,937.67
2023-01-18T06:51:29.648Z,937.70
2023-01-18T06:52:29.647Z,937.64
2023-01-18T06:53:29.590Z,937.70
2023-01-18T06:54:29.622Z,937.62
2023-01-18T06:55:29.608Z,937.75
2023-01-18T06:56:29.568Z,937.63
2023-01-18T06:57:29.615Z,937.74
2023-01-18T06:58:29.579Z,937.67
2023-01-18T06:59:29.525Z,937.72
2023-01-18T07:00:29.555Z,937.71
2023-01-18T07:01:29.629Z,937.67
2023-01-18T07:02:29.503Z,937.71
2023-01-18T07:03:29.503Z,937.79
2023-01-18T07:04:29.510Z,937.72
2023-01-18T07:05:29.501Z,937.73
2023-01-18T07:06:29.449Z,937.76
2023-01-18T07:07:29.435Z,937.82
2023-01-18T07:08:29.469Z,937.79
2023-01-18T07:09:29.425Z,937.82
2023-01-18T07:10:29.424Z,937.81
2023-01-18T07:11:29.437Z,937.82
2023-01-18T07:12:29.387Z,937.87
2023-01-18T07:13:29.413Z,937.88
2023-01-18T07:14:29.474Z,937.91
2023-01-18T07:15:29.363Z,937.94
2023-01-18T07:16:29.456Z,937.90
2023-01-18T07:17:29.326Z,937.94
2023-01-18T07:18:29.374Z,937.94
2023-01-18T07:19:29.330Z,938.00
2023-01-18T07:20:29.333Z,937.96
2023-01-18T07:21:29.333Z,937.96
2023-01-18T07:22:29.267Z,937.96
2023-01-18T07:23:29.258Z,938.01
2023-01-18T07:24:29.285Z,937.99
2023-01-18T07:25:29.260Z,938.01
2023-01-18T07:26:29.260Z,937.97
2023-01-18T07:27:29.253Z,938.02
2023-01-18T07:28:29.202Z,937.97
2023-01-18T07:29:29.212Z,938.03
2023-01-18T07:30:29.197Z,937.99
2023-01-18T07:31:29.272Z,938.05
2023-01-18T07:32:29.193Z,938.04
2023-01-18T07:33:29.157Z,938.02
2023-01-18T07:34:29.132Z,938.06
2023-01-18T07:35:29.125Z,938.08
2023-01-18T07:36:29.120Z,938.04
2023-01-18T07:37:29.160Z,938.04
2023-01-18T07:38:29.122Z,938.11
2023-01-18T07:39:29.230Z,938.10
2023-01-18T07:40:29.070Z,938.10
2023-01-18T07:41:30.945Z,938.13
2023-01-18T07:42:29.066Z,938.13
2023-01-18T07:43:29.044Z,938.14
2023-01-18T07:44:29.068Z,938.12
2023-01-18T07:45:29.019Z,938.15
2023-01-18T07:46:29.114Z,938.17
2023-01-18T07:47:29.031Z,938.24
2023-01-18T07:48:29.000Z,938.22
2023-01-18T07:49:28.988Z,938.25
2023-01-18T07:50:29.010Z,938.27
2023-01-18T07:51:28.952Z,938.33
2023-01-18T07:52:28.956Z,938.34
2023-01-18T07:53:28.928Z,938.34
2023-01-18T07:54:28.944Z,938.34
2023-01-18T07:55:28.923Z,938.37
2023-01-18T07:56:28.947Z,938.38
2023-01-18T07:57:28.881Z,938.37
2023-01-18T07:58:28.868Z,938.40
2023-01-18T07:59:28.903Z,938.44
2023-01-18T08:00:28.853Z,938.39
2023-01-18T08:01:28.950Z,938.43
2023-01-18T08:02:28.922Z,938.43
2023-01-18T08:03:28.818Z,938.38
2023-01-18T08:04:28.829Z,938.42
2023-01-18T08:05:28.822Z,938.38
2023-01-18T08:06:28.807Z,938.40
2023-01-18T08:07:28.787Z,938.43
2023-01-18T08:08:28.820Z,938.44
2023-01-18T08:09:28.869Z,938.48
2023-01-18T08:10:28.735Z,938.47
2023-01-18T08:11:28.772Z,938.51
2023-01-18T08:12:28.731Z,938.55
2023-01-18T08:13:28.719Z,938.45
2023-01-18T08:14:28.770Z,938.49
2023-01-18T08:15:28.849Z,938.58
2023-01-18T08:16:28.674Z,938.50
2023-01-18T08:17:28.663Z,938.56
2023-01-18T08:18:28.703Z,938.55
2023-01-18T08:19:28.706Z,938.57
2023-01-18T08:20:28.627Z,938.64
2023-01-18T08:21:28.616Z,938.70
2023-01-18T08:22:28.621Z,938.69
2023-01-18T08:23:28.595Z,938.66
2023-01-18T08:24:28.641Z,938.68
2023-01-18T08:25:28.621Z,938.71
2023-01-18T08:26:28.583Z,938.76
2023-01-18T08:27:28.546Z,938.78
2023-01-18T08:28:28.556Z,938.81
2023-01-18T08:29:28.537Z,938.81
2023-01-18T08:30:28.546Z,938.82
2023-01-18T08:31:28.590Z,938.91
2023-01-18T08:32:28.489Z,938.89
2023-01-18T08:33:28.520Z,938.98
2023-01-18T08:34:28.484Z,938.91
2023-01-18T08:35:28.482Z,938.99
2023-01-18T08:36:28.451Z,939.08
2023-01-18T08:37:28.479Z,939.06
2023-01-18T08:38:28.423Z,939.13
2023-01-18T08:39:28.438Z,939.08
2023-01-18T08:40:28.404Z,939.05
2023-01-18T08:41:28.660Z,939.11
2023-01-18T08:42:28.376Z,939.09
2023-01-18T08:43:28.415Z,939.10
2023-01-18T08:44:28.385Z,939.11
2023-01-18T08:45:28.370Z,939.15
2023-01-18T08:46:28.392Z,939.16
2023-01-18T08:47:28.342Z,939.19
2023-01-18T08:48:28.309Z,939.19
2023-01-18T08:49:28.318Z,939.22
2023-01-18T08:50:28.328Z,939.20
2023-01-18T08:51:28.277Z,939.26
2023-01-18T08:52:28.328Z,939.26
2023-01-18T08:53:28.279Z,939.30
2023-01-18T08:54:28.242Z,939.35
2023-01-18T08:55:28.253Z,939.30
2023-01-18T08:56:28.232Z,939.32
2023-01-18T08:57:28.247Z,939.35
2023-01-18T08:58:28.227Z,939.40
2023-01-18T08:59:28.256Z,939.40
2023-01-18T09:00:28.199Z,939.39
2023-01-18T09:01:28.308Z,939.46
2023-01-18T09:02:28.225Z,939.45
2023-01-18T09:03:28.152Z,939.47
2023-01-18T09:04:28.145Z,939.51
2023-01-18T09:05:28.160Z,939.54
2023-01-18T09:06:28.145Z,939.58
2023-01-18T09:07:28.099Z,939.56
2023-01-18T09:08:28.139Z,939.60
2023-01-18T09:09:28.121Z,939.61
2023-01-18T09:10:28.085Z,939.62
2023-01-18T09:11:28.101Z,939.62
2023-01-18T09:12:28.039Z,939.68
2023-01-18T09:13:28.039Z,939.68
2023-01-18T09:14:28.021Z,939.66
2023-01-18T09:15:28.051Z,939.69
2023-01-18T09:16:28.108Z,939.72
2023-01-18T09:17:27.990Z,939.67
2023-01-18T09:18:27.992Z,939.71
2023-01-18T09:19:27.986Z,939.71
2023-01-18T09:20:27.958Z,939.76
2023-01-18T09:21:28.030Z,939.73
2023-01-18T09:22:27.966Z,939.78
2023-01-18T09:23:27.922Z,939.82
2023-01-18T09:24:27.939Z,939.78
2023-01-18T09:25:27.899Z,939.83
2023-01-18T09:26:27.952Z,939.89
2023-01-18T09:27:27.894Z,939.88
2023-01-18T09:28:27.924Z,939.94
2023-01-18T09:29:27.857Z,939.90
2023-01-18T09:30:27.849Z,939.97
2023-01-18T09:31:27.901Z,939.95
2023-01-18T09:32:27.827Z,939.97
2023-01-18T09:33:36.859Z,940.05
2023-01-18T09:34:28.826Z,940.08
2023-01-18T09:35:27.800Z,940.02
2023-01-18T09:36:27.808Z,940.06
2023-01-18T09:37:27.766Z,940.05
2023-01-18T09:38:27.767Z,940.05
2023-01-18T09:39:27.776Z,940.03
2023-01-18T09:40:27.728Z,940.12
2023-01-18T09:41:27.717Z,940.15
2023-01-18T09:42:27.761Z,940.15
2023-01-18T09:43:27.712Z,940.18
2023-01-18T09:44:27.701Z,940.17
2023-01-18T09:45:27.707Z,940.17
2023-01-18T09:46:27.693Z,940.20
2023-01-18T09:47:27.659Z,940.24
2023-01-18T09:48:27.716Z,940.32
2023-01-18T09:49:27.671Z,940.24
2023-01-18T09:50:27.617Z,940.28
2023-01-18T09:51:27.605Z,940.34
2023-01-18T09:52:27.615Z,940.36
2023-01-18T09:53:27.604Z,940.39
2023-01-18T09:54:27.608Z,940.44
2023-01-18T09:55:27.597Z,940.39
2023-01-18T09:56:27.552Z,940.39
2023-01-18T09:57:27.547Z,940.47
2023-01-18T09:58:27.558Z,940.45
2023-01-18T09:59:27.539Z,940.54
2023-01-18T10:00:27.703Z,940.52
2023-01-18T10:01:27.619Z,940.49
2023-01-18T10:02:27.549Z,940.52
2023-01-18T10:03:27.498Z,940.54
2023-01-18T10:04:27.540Z,940.54
2023-01-18T10:05:27.450Z,940.58
2023-01-18T10:06:27.452Z,940.56
2023-01-18T10:07:27.468Z,940.54
2023-01-18T10:08:27.467Z,940.53
2023-01-18T10:09:27.411Z,940.56
2023-01-18T10:10:27.460Z,940.60
2023-01-18T10:11:27.405Z,940.64
2023-01-18T10:12:27.382Z,940.54
2023-01-18T10:13:27.365Z,940.60
2023-01-18T10:14:27.356Z,940.62
2023-01-18T10:15:27.337Z,940.64
2023-01-18T10:16:27.398Z,940.68
2023-01-18T10:17:27.321Z,940.70
2023-01-18T10:18:27.318Z,940.80
2023-01-18T10:19:27.331Z,940.72
2023-01-18T10:20:27.303Z,940.84
2023-01-18T10:21:27.273Z,940.77
2023-01-18T10:22:27.283Z,940.86
2023-01-18T10:23:28.247Z,940.84
2023-01-18T10:24:27.253Z,940.87
2023-01-18T10:25:27.270Z,940.85
2023-01-18T10:26:27.239Z,940.89
2023-01-18T10:27:27.219Z,940.84
2023-01-18T10:28:27.199Z,940.88
2023-01-18T10:29:27.738Z,940.94
2023-01-18T10:30:27.206Z,940.94
2023-01-18T10:31:27.232Z,940.91
2023-01-18T10:32:27.160Z,940.96
2023-01-18T10:33:27.147Z,940.99
2023-01-18T10:34:27.131Z,941.01
2023-01-18T10:35:27.145Z,941.01
2023-01-18T10:36:27.104Z,941.07
2023-01-18T10:37:27.102Z,941.08
2023-01-18T10:38:27.103Z,941.10
2023-01-18T10:39:27.089Z,941.09
2023-01-18T10:40:27.093Z,941.09
2023-01-18T10:41:27.067Z,941.06
2023-01-18T10:42:27.061Z,941.08
2023-01-18T10:43:27.028Z,941.16
2023-01-18T10:44:27.030Z,941.16
2023-01-18T10:45:27.094Z,941.20
2023-01-18T10:46:27.008Z,941.20
2023-01-18T10:47:27.011Z,941.19
2023-01-18T10:48:26.971Z,941.26
2023-01-18T10:49:26.961Z,941.22
2023-01-18T10:50:26.967Z,941.32
2023-01-18T10:51:26.982Z,941.34
2023-01-18T10:52:26.939Z,941.36
2023-01-18T10:53:26.925Z,941.39
2023-01-18T10:54:26.917Z,941.28
2023-01-18T10:55:26.894Z,941.31
2023-01-18T10:56:26.906Z,941.30
2023-01-18T10:57:26.908Z,941.41
2023-01-18T10:58:26.966Z,941.32
2023-01-18T10:59:26.896Z,941.38
2023-01-18T11:00:26.861Z,941.36
2023-01-18T11:01:26.963Z,941.34
2023-01-18T11:02:26.870Z,941.33
2023-01-18T11:03:26.817Z,941.39
2023-01-18T11:04:26.820Z,941.41
2023-01-18T11:05:26.790Z,941.41
2023-01-18T11:06:26.795Z,941.47
2023-01-18T11:07:26.786Z,941.48
2023-01-18T11:08:26.772Z,941.43
2023-01-18T11:09:26.759Z,941.53
2023-01-18T11:10:26.732Z,941.52
2023-01-18T11:11:26.767Z,941.51
2023-01-18T11:12:26.706Z,941.52
2023-01-18T11:13:26.706Z,941.53
2023-01-18T11:14:26.757Z,941.54
2023-01-18T11:15:26.686Z,941.58
2023-01-18T11:16:26.675Z,941.61
2023-01-18T11:17:26.675Z,941.56
2023-01-18T11:18:26.668Z,941.62
2023-01-18T11:19:26.652Z,941.62
2023-01-18T11:20:26.651Z,941.61
2023-01-18T11:21:26.624Z,941.57
2023-01-18T11:22:26.591Z,941.56
2023-01-18T11:23:26.602Z,941.57
2023-01-18T11:24:26.572Z,941.63
2023-01-18T11:25:26.559Z,941.64
2023-01-18T11:26:26.594Z,941.60
2023-01-18T11:27:26.536Z,941.58
2023-01-18T11:28:26.568Z,941.66
2023-01-18T11:29:28.496Z,941.66
2023-01-18T11:30:26.543Z,941.68
2023-01-18T11:31:26.560Z,941.71
2023-01-18T11:32:26.531Z,941.67
2023-01-18T11:33:26.469Z,941.69
2023-01-18T11:34:26.459Z,941.71
2023-01-18T11:35:26.486Z,941.75
2023-01-18T11:36:26.485Z,941.74
2023-01-18T11:37:26.469Z,941.79
2023-01-18T11:38:26.471Z,941.80
2023-01-18T11:39:26.406Z,941.82
2023-01-18T11:40:26.431Z,941.90
2023-01-18T11:41:26.419Z,941.85
2023-01-18T11:42:26.377Z,941.89
2023-01-18T11:43:26.404Z,941.91
2023-01-18T11:44:26.379Z,941.97
2023-01-18T11:45:26.343Z,941.95
2023-01-18T11:46:26.379Z,941.99
2023-01-18T11:47:26.320Z,941.98
2023-01-18T11:48:26.304Z,941.97
2023-01-18T11:49:26.307Z,942.02
2023-01-18T11:50:26.403Z,942.04
2023-01-18T11:51:26.286Z,942.02
2023-01-18T11:52:26.286Z,942.10
2023-01-18T11:53:26.278Z,942.08
2023-01-18T11:54:26.239Z,942.10
2023-01-18T11:55:26.270Z,942.11
2023-01-18T11:56:26.213Z,942.14
2023-01-18T11:57:36.793Z,942.10
2023-01-18T11:58:26.221Z,942.15
2023-01-18T11:59:26.211Z,942.16
2023-01-18T12:00:26.179Z,942.15
2023-01-18T12:01:26.183Z,942.21
2023-01-18T12:02:26.199Z,942.29
2023-01-18T12:03:26.173Z,942.27
2023-01-18T12:04:26.170Z,942.19
2023-01-18T12:05:26.114Z,942.36
2023-01-18T12:06:26.132Z,942.31
2023-01-18T12:07:26.170Z,942.35
2023-01-18T12:08:26.078Z,942.42
2023-01-18T12:09:26.066Z,942.38
2023-01-18T12:10:26.084Z,942.41
2023-01-18T12:11:26.055Z,942.47
2023-01-18T12:12:26.078Z,942.51
2023-01-18T12:13:26.020Z,942.53
2023-01-18T12:14:26.011Z,942.48
2023-01-18T12:15:26.043Z,942.54
2023-01-18T12:16:26.030Z,942.55
2023-01-18T12:17:25.988Z,942.60
2023-01-18T12:18:26.023Z,942.57
2023-01-18T12:19:25.954Z,942.64
2023-01-18T12:20:25.947Z,942.66
2023-01-18T12:21:25.963Z,942.73
2023-01-18T12:22:25.920Z,942.79
2023-01-18T12:23:25.914Z,942.80
2023-01-18T12:24:25.962Z,942.79
2023-01-18T12:25:25.885Z,942.83
2023-01-18T12:26:25.877Z,942.79
2023-01-18T12:27:25.872Z,942.85
2023-01-18T12:28:25.857Z,942.82